sensor_id;sensor_type;location;lat;lon;timestamp;pressure;altitude;pressure_sealevel;temperature;humidity
36380;BME280;22411;53.016;18.632;2023-04-03T00:00:57;101718.06;;;-0.18;100.00
36380;BME280;22411;53.016;18.632;2023-04-03T00:03:25;101719.75;;;-0.14;100.00
36380;BME280;22411;53.016;18.632;2023-04-03T00:05:51;101724.00;;;-0.13;100.00
36380;BME280;22411;53.016;18.632;2023-04-03T00:08:18;101722.31;;;-0.14;100.00
36380;BME280;22411;53.016;18.632;2023-04-03T00:10:44;101723.16;;;-0.17;100.00
36380;BME280;22411;53.016;18.632;2023-04-03T00:13:12;101726.53;;;-0.12;100.00
36380;BME280;22411;53.016;18.632;2023-04-03T00:15:40;101726.53;;;-0.16;100.00
36380;BME280;22411;53.016;18.632;2023-04-03T00:18:07;101721.44;;;-0.13;100.00
36380;BME280;22411;53.016;18.632;2023-04-03T00:20:33;101719.75;;;-0.13;100.00
36380;BME280;22411;53.016;18.632;2023-04-03T00:23:00;101722.31;;;-0.19;100.00
36380;BME280;22411;53.016;18.632;2023-04-03T00:25:26;101723.16;;;-0.17;100.00
36380;BME280;22411;53.016;18.632;2023-04-03T00:27:52;101724.88;;;-0.20;100.00
36380;BME280;22411;53.016;18.632;2023-04-03T00:30:20;101722.31;;;-0.14;100.00
36380;BME280;22411;53.016;18.632;2023-04-03T00:32:48;101721.47;;;-0.15;100.00
36380;BME280;22411;53.016;18.632;2023-04-03T00:35:14;101719.75;;;-0.17;100.00
36380;BME280;22411;53.016;18.632;2023-04-03T00:37:46;101724.00;;;-0.18;100.00
36380;BME280;22411;53.016;18.632;2023-04-03T00:40:13;101728.25;;;-0.21;100.00
36380;BME280;22411;53.016;18.632;2023-04-03T00:42:41;101724.88;;;-0.20;100.00
36380;BME280;22411;53.016;18.632;2023-04-03T00:47:38;101724.88;;;-0.22;100.00
36380;BME280;22411;53.016;18.632;2023-04-03T00:50:07;101734.25;;;-0.24;100.00
36380;BME280;22411;53.016;18.632;2023-04-03T00:52:33;101728.28;;;-0.23;100.00
36380;BME280;22411;53.016;18.632;2023-04-03T00:55:03;101725.75;;;-0.24;100.00
36380;BME280;22411;53.016;18.632;2023-04-03T00:57:33;101725.75;;;-0.28;100.00
36380;BME280;22411;53.016;18.632;2023-04-03T01:00:08;101724.91;;;-0.28;100.00
36380;BME280;22411;53.016;18.632;2023-04-03T01:02:37;101726.59;;;-0.29;100.00
36380;BME280;22411;53.016;18.632;2023-04-03T01:05:07;101734.28;;;-0.32;100.00
36380;BME280;22411;53.016;18.632;2023-04-03T01:07:35;101733.44;;;-0.37;100.00
36380;BME280;22411;53.016;18.632;2023-04-03T01:10:09;101738.53;;;-0.35;100.00
36380;BME280;22411;53.016;18.632;2023-04-03T01:12:38;101734.28;;;-0.39;100.00
36380;BME280;22411;53.016;18.632;2023-04-03T01:15:17;101733.47;;;-0.44;100.00
36380;BME280;22411;53.016;18.632;2023-04-03T01:25:53;101734.34;;;-0.51;100.00
36380;BME280;22411;53.016;18.632;2023-04-03T01:28:29;101740.31;;;-0.52;100.00
36380;BME280;22411;53.016;18.632;2023-04-03T01:33:25;101747.09;;;-0.55;100.00
36380;BME280;22411;53.016;18.632;2023-04-03T01:35:51;101741.97;;;-0.55;100.00
36380;BME280;22411;53.016;18.632;2023-04-03T01:38:18;101738.59;;;-0.58;100.00
36380;BME280;22411;53.016;18.632;2023-04-03T01:40:45;101748.78;;;-0.60;100.00
36380;BME280;22411;53.016;18.632;2023-04-03T01:43:12;101736.06;;;-0.61;100.00
36380;BME280;22411;53.016;18.632;2023-04-03T01:45:38;101743.72;;;-0.63;100.00
36380;BME280;22411;53.016;18.632;2023-04-03T01:48:05;101743.72;;;-0.66;100.00
36380;BME280;22411;53.016;18.632;2023-04-03T01:50:32;101744.56;;;-0.67;100.00
36380;BME280;22411;53.016;18.632;2023-04-03T01:52:58;101742.84;;;-0.65;100.00
36380;BME280;22411;53.016;18.632;2023-04-03T01:55:24;101743.69;;;-0.64;100.00
36380;BME280;22411;53.016;18.632;2023-04-03T01:57:51;101746.28;;;-0.67;100.00
36380;BME280;22411;53.016;18.632;2023-04-03T02:00:17;101749.69;;;-0.68;100.00
36380;BME280;22411;53.016;18.632;2023-04-03T02:02:43;101743.72;;;-0.66;100.00
36380;BME280;22411;53.016;18.632;2023-04-03T02:05:10;101747.13;;;-0.68;100.00
36380;BME280;22411;53.016;18.632;2023-04-03T02:07:36;101748.81;;;-0.67;100.00
36380;BME280;22411;53.016;18.632;2023-04-03T02:10:03;101745.44;;;-0.68;100.00
36380;BME280;22411;53.016;18.632;2023-04-03T02:12:29;101752.22;;;-0.70;100.00
36380;BME280;22411;53.016;18.632;2023-04-03T02:14:55;101747.97;;;-0.72;100.00
36380;BME280;22411;53.016;18.632;2023-04-03T02:17:22;101753.91;;;-0.75;100.00
36380;BME280;22411;53.016;18.632;2023-04-03T02:19:49;101755.63;;;-0.77;100.00
36380;BME280;22411;53.016;18.632;2023-04-03T02:22:17;101759.03;;;-0.76;100.00
36380;BME280;22411;53.016;18.632;2023-04-03T02:24:43;101764.09;;;-0.75;100.00
36380;BME280;22411;53.016;18.632;2023-04-03T02:27:09;101759.03;;;-0.73;100.00
36380;BME280;22411;53.016;18.632;2023-04-03T02:29:35;101761.56;;;-0.76;100.00
36380;BME280;22411;53.016;18.632;2023-04-03T02:32:02;101758.16;;;-0.77;100.00
36380;BME280;22411;53.016;18.632;2023-04-03T02:34:28;101759.88;;;-0.76;100.00
36380;BME280;22411;53.016;18.632;2023-04-03T02:36:56;101764.09;;;-0.72;100.00
36380;BME280;22411;53.016;18.632;2023-04-03T02:39:22;101770.06;;;-0.73;100.00
36380;BME280;22411;53.016;18.632;2023-04-03T02:41:48;101771.75;;;-0.73;100.00
36380;BME280;22411;53.016;18.632;2023-04-03T02:44:15;101768.34;;;-0.77;100.00
36380;BME280;22411;53.016;18.632;2023-04-03T02:46:41;101775.97;;;-0.75;100.00
36380;BME280;22411;53.016;18.632;2023-04-03T02:49:07;101775.13;;;-0.74;100.00
36380;BME280;22411;53.016;18.632;2023-04-03T02:51:34;101781.94;;;-0.76;100.00
36380;BME280;22411;53.016;18.632;2023-04-03T02:54:00;101780.25;;;-0.77;100.00
36380;BME280;22411;53.016;18.632;2023-04-03T02:56:26;101777.72;;;-0.79;100.00
36380;BME280;22411;53.016;18.632;2023-04-03T02:58:53;101778.53;;;-0.80;100.00
36380;BME280;22411;53.016;18.632;2023-04-03T03:01:21;101785.31;;;-0.76;100.00
36380;BME280;22411;53.016;18.632;2023-04-03T03:03:47;101787.03;;;-0.81;100.00
36380;BME280;22411;53.016;18.632;2023-04-03T03:06:15;101789.59;;;-0.84;100.00
36380;BME280;22411;53.016;18.632;2023-04-03T03:08:42;101792.13;;;-0.84;100.00
36380;BME280;22411;53.016;18.632;2023-04-03T03:11:09;101792.97;;;-0.87;100.00
36380;BME280;22411;53.016;18.632;2023-04-03T03:13:35;101793.81;;;-0.86;100.00
36380;BME280;22411;53.016;18.632;2023-04-03T03:16:01;101793.84;;;-0.88;100.00
36380;BME280;22411;53.016;18.632;2023-04-03T03:18:28;101798.91;;;-0.85;100.00
36380;BME280;22411;53.016;18.632;2023-04-03T03:20:56;101798.91;;;-0.86;100.00
36380;BME280;22411;53.016;18.632;2023-04-03T03:23:24;101802.31;;;-0.86;100.00
36380;BME280;22411;53.016;18.632;2023-04-03T03:26:00;101805.72;;;-0.88;100.00
36380;BME280;22411;53.016;18.632;2023-04-03T03:28:27;101807.41;;;-0.89;100.00
36380;BME280;22411;53.016;18.632;2023-04-03T03:30:53;101808.25;;;-0.85;100.00
36380;BME280;22411;53.016;18.632;2023-04-03T03:33:19;101804.00;;;-0.88;100.00
36380;BME280;22411;53.016;18.632;2023-04-03T03:35:45;101808.22;;;-0.90;100.00
36380;BME280;22411;53.016;18.632;2023-04-03T03:38:11;101813.34;;;-0.94;100.00
36380;BME280;22411;53.016;18.632;2023-04-03T03:40:38;101811.66;;;-0.92;100.00
36380;BME280;22411;53.016;18.632;2023-04-03T03:43:03;101815.03;;;-0.90;100.00
36380;BME280;22411;53.016;18.632;2023-04-03T03:45:30;101823.50;;;-0.90;100.00
36380;BME280;22411;53.016;18.632;2023-04-03T03:47:57;101818.41;;;-0.90;100.00
36380;BME280;22411;53.016;18.632;2023-04-03T03:50:23;101826.06;;;-0.93;100.00
36380;BME280;22411;53.016;18.632;2023-04-03T03:52:49;101824.34;;;-0.95;100.00
36380;BME280;22411;53.016;18.632;2023-04-03T03:55:16;101833.72;;;-0.93;100.00
36380;BME280;22411;53.016;18.632;2023-04-03T03:57:42;101834.56;;;-0.92;100.00
36380;BME280;22411;53.016;18.632;2023-04-03T04:00:09;101826.91;;;-0.92;100.00
36380;BME280;22411;53.016;18.632;2023-04-03T04:02:35;101833.69;;;-0.91;100.00
36380;BME280;22411;53.016;18.632;2023-04-03T04:05:04;101827.75;;;-0.96;100.00
36380;BME280;22411;53.016;18.632;2023-04-03T04:07:30;101831.16;;;-0.96;100.00
36380;BME280;22411;53.016;18.632;2023-04-03T04:09:56;101835.41;;;-0.98;100.00
36380;BME280;22411;53.016;18.632;2023-04-03T04:12:22;101845.56;;;-0.96;100.00
36380;BME280;22411;53.016;18.632;2023-04-03T04:14:48;101832.03;;;-1.00;100.00
36380;BME280;22411;53.016;18.632;2023-04-03T04:17:15;101839.63;;;-1.03;100.00
36380;BME280;22411;53.016;18.632;2023-04-03T04:19:41;101837.94;;;-1.02;100.00
36380;BME280;22411;53.016;18.632;2023-04-03T04:22:07;101840.47;;;-1.07;100.00
36380;BME280;22411;53.016;18.632;2023-04-03T04:24:33;101841.31;;;-1.07;100.00
36380;BME280;22411;53.016;18.632;2023-04-03T04:26:59;101843.88;;;-1.07;100.00
36380;BME280;22411;53.016;18.632;2023-04-03T04:29:26;101845.59;;;-1.04;100.00
36380;BME280;22411;53.016;18.632;2023-04-03T04:31:53;101852.38;;;-1.00;100.00
36380;BME280;22411;53.016;18.632;2023-04-03T04:34:21;101856.63;;;-0.99;100.00
36380;BME280;22411;53.016;18.632;2023-04-03T04:36:47;101853.22;;;-1.01;100.00
36380;BME280;22411;53.016;18.632;2023-04-03T04:39:21;101850.69;;;-1.04;100.00
36380;BME280;22411;53.016;18.632;2023-04-03T04:41:47;101859.16;;;-1.03;100.00
36380;BME280;22411;53.016;18.632;2023-04-03T04:44:14;101861.72;;;-0.99;100.00
36380;BME280;22411;53.016;18.632;2023-04-03T04:46:40;101864.22;;;-1.00;100.00
36380;BME280;22411;53.016;18.632;2023-04-03T04:49:07;101873.56;;;-0.96;100.00
36380;BME280;22411;53.016;18.632;2023-04-03T04:51:33;101870.19;;;-0.98;100.00
36380;BME280;22411;53.016;18.632;2023-04-03T04:54:00;101872.72;;;-0.95;100.00
36380;BME280;22411;53.016;18.632;2023-04-03T04:56:26;101873.59;;;-0.93;100.00
36380;BME280;22411;53.016;18.632;2023-04-03T04:58:53;101882.94;;;-0.89;100.00
36380;BME280;22411;53.016;18.632;2023-04-03T05:01:20;101881.22;;;-0.86;100.00
36380;BME280;22411;53.016;18.632;2023-04-03T05:03:46;101889.72;;;-0.82;100.00
36380;BME280;22411;53.016;18.632;2023-04-03T05:06:13;101886.31;;;-0.83;100.00
36380;BME280;22411;53.016;18.632;2023-04-03T05:08:40;101893.97;;;-0.76;100.00
36380;BME280;22411;53.016;18.632;2023-04-03T05:11:06;101889.72;;;-0.73;100.00
36380;BME280;22411;53.016;18.632;2023-04-03T05:13:33;101893.97;;;-0.70;100.00
36380;BME280;22411;53.016;18.632;2023-04-03T05:15:59;101899.06;;;-0.66;100.00
36380;BME280;22411;53.016;18.632;2023-04-03T05:18:25;101901.59;;;-0.64;100.00
36380;BME280;22411;53.016;18.632;2023-04-03T05:20:51;101897.34;;;-0.59;100.00
36380;BME280;22411;53.016;18.632;2023-04-03T05:23:18;101901.59;;;-0.57;100.00
36380;BME280;22411;53.016;18.632;2023-04-03T05:25:44;101896.50;;;-0.60;100.00
36380;BME280;22411;53.016;18.632;2023-04-03T05:28:12;101899.88;;;-0.53;100.00
36380;BME280;22411;53.016;18.632;2023-04-03T05:30:39;101904.13;;;-0.49;100.00
36380;BME280;22411;53.016;18.632;2023-04-03T05:33:06;101907.56;;;-0.47;100.00
36380;BME280;22411;53.016;18.632;2023-04-03T05:35:32;101905.84;;;-0.40;100.00
36380;BME280;22411;53.016;18.632;2023-04-03T05:37:58;101910.94;;;-0.36;100.00
36380;BME280;22411;53.016;18.632;2023-04-03T05:40:24;101902.44;;;-0.30;100.00
36380;BME280;22411;53.016;18.632;2023-04-03T05:42:50;101909.22;;;-0.23;100.00
36380;BME280;22411;53.016;18.632;2023-04-03T05:45:16;101915.16;;;-0.15;100.00
36380;BME280;22411;53.016;18.632;2023-04-03T05:47:42;101913.44;;;-0.13;100.00
36380;BME280;22411;53.016;18.632;2023-04-03T05:50:09;101914.28;;;-0.09;100.00
36380;BME280;22411;53.016;18.632;2023-04-03T05:52:38;101910.03;;;-0.04;100.00
36380;BME280;22411;53.016;18.632;2023-04-03T05:55:06;101922.78;;;0.01;100.00
36380;BME280;22411;53.016;18.632;2023-04-03T05:57:32;101912.59;;;0.01;100.00
36380;BME280;22411;53.016;18.632;2023-04-03T05:59:58;101918.50;;;0.06;100.00
36380;BME280;22411;53.016;18.632;2023-04-03T06:02:25;101921.88;;;0.09;100.00
36380;BME280;22411;53.016;18.632;2023-04-03T06:04:52;101923.59;;;0.12;100.00
36380;BME280;22411;53.016;18.632;2023-04-03T06:07:24;101926.13;;;0.16;100.00
36380;BME280;22411;53.016;18.632;2023-04-03T06:09:55;101932.09;;;0.17;100.00
36380;BME280;22411;53.016;18.632;2023-04-03T06:12:24;101935.44;;;0.25;100.00
36380;BME280;22411;53.016;18.632;2023-04-03T06:14:51;101935.44;;;0.28;100.00
36380;BME280;22411;53.016;18.632;2023-04-03T06:17:18;101937.97;;;0.37;100.00
36380;BME280;22411;53.016;18.632;2023-04-03T06:19:44;101932.84;;;0.40;100.00
36380;BME280;22411;53.016;18.632;2023-04-03T06:22:11;101933.69;;;0.44;100.00
36380;BME280;22411;53.016;18.632;2023-04-03T06:24:38;101943.88;;;0.53;100.00
36380;BME280;22411;53.016;18.632;2023-04-03T06:27:05;101948.06;;;0.57;100.00
36380;BME280;22411;53.016;18.632;2023-04-03T06:29:30;101952.31;;;0.66;100.00
36380;BME280;22411;53.016;18.632;2023-04-03T06:31:57;101954.81;;;0.73;100.00
36380;BME280;22411;53.016;18.632;2023-04-03T06:34:24;101953.94;;;0.79;100.00
36380;BME280;22411;53.016;18.632;2023-04-03T06:36:50;101962.44;;;0.86;100.00
36380;BME280;22411;53.016;18.632;2023-04-03T06:39:19;101966.66;;;0.91;100.00
36380;BME280;22411;53.016;18.632;2023-04-03T06:41:50;101966.63;;;0.96;100.00
36380;BME280;22411;53.016;18.632;2023-04-03T06:44:16;101967.44;;;1.02;100.00
36380;BME280;22411;53.016;18.632;2023-04-03T06:46:44;101964.84;;;1.09;100.00
36380;BME280;22411;53.016;18.632;2023-04-03T06:49:12;101965.69;;;1.12;100.00
36380;BME280;22411;53.016;18.632;2023-04-03T06:51:38;101968.25;;;1.12;100.00
36380;BME280;22411;53.016;18.632;2023-04-03T06:54:05;101974.16;;;1.17;100.00
36380;BME280;22411;53.016;18.632;2023-04-03T06:56:32;101997.13;;;1.16;100.00
36380;BME280;22411;53.016;18.632;2023-04-03T06:58:58;101991.97;;;1.25;100.00
36380;BME280;22411;53.016;18.632;2023-04-03T07:01:26;101981.72;;;1.33;100.00
36380;BME280;22411;53.016;18.632;2023-04-03T07:03:54;101982.53;;;1.36;100.00
36380;BME280;22411;53.016;18.632;2023-04-03T07:06:20;102001.25;;;1.41;100.00
36380;BME280;22411;53.016;18.632;2023-04-03T07:08:47;102010.50;;;1.56;100.00
36380;BME280;22411;53.016;18.632;2023-04-03T07:11:17;102002.72;;;1.73;100.00
36380;BME280;22411;53.016;18.632;2023-04-03T07:13:43;102001.75;;;1.84;100.00
36380;BME280;22411;53.016;18.632;2023-04-03T07:16:09;102004.25;;;1.94;100.00
36380;BME280;22411;53.016;18.632;2023-04-03T07:18:35;102007.56;;;2.03;100.00
36380;BME280;22411;53.016;18.632;2023-04-03T07:21:02;102010.16;;;2.00;100.00
36380;BME280;22411;53.016;18.632;2023-04-03T07:23:28;102016.09;;;2.02;100.00
36380;BME280;22411;53.016;18.632;2023-04-03T07:25:55;102016.03;;;2.10;100.00
36380;BME280;22411;53.016;18.632;2023-04-03T07:28:22;102016.00;;;2.15;100.00
36380;BME280;22411;53.016;18.632;2023-04-03T07:30:52;102023.63;;;2.19;100.00
36380;BME280;22411;53.016;18.632;2023-04-03T07:33:21;102023.63;;;2.19;100.00
36380;BME280;22411;53.016;18.632;2023-04-03T07:35:47;102022.75;;;2.23;100.00
36380;BME280;22411;53.016;18.632;2023-04-03T07:38:13;102027.78;;;2.32;100.00
36380;BME280;22411;53.016;18.632;2023-04-03T07:40:40;102031.13;;;2.38;100.00
36380;BME280;22411;53.016;18.632;2023-04-03T07:43:11;102029.38;;;2.41;100.00
36380;BME280;22411;53.016;18.632;2023-04-03T07:45:37;102032.66;;;2.52;100.00
36380;BME280;22411;53.016;18.632;2023-04-03T07:48:04;102037.75;;;2.58;100.00
36380;BME280;22411;53.016;18.632;2023-04-03T07:50:30;102031.69;;;2.66;100.00
36380;BME280;22411;53.016;18.632;2023-04-03T07:52:58;102029.00;;;2.73;100.00
36380;BME280;22411;53.016;18.632;2023-04-03T07:55:25;102031.66;;;2.67;100.00
36380;BME280;22411;53.016;18.632;2023-04-03T07:57:53;102042.63;;;2.80;100.00
36380;BME280;22411;53.016;18.632;2023-04-03T08:00:22;102038.00;;;3.05;100.00
36380;BME280;22411;53.016;18.632;2023-04-03T08:02:48;102032.00;;;3.09;100.00
36380;BME280;22411;53.016;18.632;2023-04-03T08:05:19;102034.50;;;3.13;100.00
36380;BME280;22411;53.016;18.632;2023-04-03T08:07:46;102047.19;;;3.23;100.00
36380;BME280;22411;53.016;18.632;2023-04-03T08:10:14;102035.84;;;3.39;100.00
36380;BME280;22411;53.016;18.632;2023-04-03T08:12:41;102034.03;;;3.46;100.00
36380;BME280;22411;53.016;18.632;2023-04-03T08:15:08;102034.97;;;3.40;100.00
36380;BME280;22411;53.016;18.632;2023-04-03T08:17:34;102049.41;;;3.47;100.00
36380;BME280;22411;53.016;18.632;2023-04-03T08:20:03;102049.28;;;3.56;100.00
36380;BME280;22411;53.016;18.632;2023-04-03T08:22:30;102042.13;;;3.77;100.00
36380;BME280;22411;53.016;18.632;2023-04-03T08:24:56;102041.03;;;3.90;97.37
36380;BME280;22411;53.016;18.632;2023-04-03T08:27:22;102052.25;;;3.84;95.56
36380;BME280;22411;53.016;18.632;2023-04-03T08:29:48;102042.69;;;3.96;98.74
36380;BME280;22411;53.016;18.632;2023-04-03T08:32:15;102042.47;;;4.08;98.14
36380;BME280;22411;53.016;18.632;2023-04-03T08:34:41;102047.41;;;4.18;90.68
36380;BME280;22411;53.016;18.632;2023-04-03T08:37:08;102051.59;;;4.24;92.26
36380;BME280;22411;53.016;18.632;2023-04-03T08:39:34;102053.00;;;4.40;91.86
36380;BME280;22411;53.016;18.632;2023-04-03T08:42:05;102045.72;;;4.64;88.50
36380;BME280;22411;53.016;18.632;2023-04-03T08:44:47;102046.56;;;4.66;86.81
36380;BME280;22411;53.016;18.632;2023-04-03T08:47:24;102053.88;;;4.84;90.14
36380;BME280;22411;53.016;18.632;2023-04-03T08:50:00;102056.97;;;5.02;82.31
36380;BME280;22411;53.016;18.632;2023-04-03T08:52:47;102053.38;;;5.09;82.65
36380;BME280;22411;53.016;18.632;2023-04-03T08:55:33;102052.38;;;5.16;83.16
36380;BME280;22411;53.016;18.632;2023-04-03T08:58:33;102061.19;;;5.44;82.74
36380;BME280;22411;53.016;18.632;2023-04-03T09:03:53;102047.75;;;5.70;78.71
36380;BME280;22411;53.016;18.632;2023-04-03T09:06:22;102051.78;;;5.79;77.38
36380;BME280;22411;53.016;18.632;2023-04-03T09:16:57;102053.22;;;7.48;65.85
36380;BME280;22411;53.016;18.632;2023-04-03T09:22:13;102052.19;;;7.80;62.67
36380;BME280;22411;53.016;18.632;2023-04-03T09:24:45;102051.53;;;8.00;63.45
36380;BME280;22411;53.016;18.632;2023-04-03T09:27:13;102044.28;;;7.86;60.52
36380;BME280;22411;53.016;18.632;2023-04-03T09:29:43;102055.59;;;7.82;56.95
36380;BME280;22411;53.016;18.632;2023-04-03T09:32:25;102055.00;;;7.46;57.07
36380;BME280;22411;53.016;18.632;2023-04-03T09:34:53;102049.34;;;7.05;61.88
36380;BME280;22411;53.016;18.632;2023-04-03T09:37:42;102048.44;;;7.07;62.71
36380;BME280;22411;53.016;18.632;2023-04-03T09:40:32;102048.63;;;7.57;63.82
36380;BME280;22411;53.016;18.632;2023-04-03T09:45:45;102046.00;;;8.12;58.63
36380;BME280;22411;53.016;18.632;2023-04-03T09:48:17;102046.16;;;7.81;55.56
36380;BME280;22411;53.016;18.632;2023-04-03T09:53:34;102034.25;;;8.28;51.42
36380;BME280;22411;53.016;18.632;2023-04-03T09:56:18;102037.13;;;8.19;55.17
36380;BME280;22411;53.016;18.632;2023-04-03T09:58:50;102043.41;;;8.38;53.31
36380;BME280;22411;53.016;18.632;2023-04-03T10:01:41;102035.16;;;8.76;52.81
36380;BME280;22411;53.016;18.632;2023-04-03T10:04:12;102038.63;;;8.98;53.06
36380;BME280;22411;53.016;18.632;2023-04-03T10:06:47;102032.84;;;9.37;49.85
36380;BME280;22411;53.016;18.632;2023-04-03T10:14:36;102018.84;;;9.63;48.69
36380;BME280;22411;53.016;18.632;2023-04-03T10:28:53;102024.97;;;7.71;54.53
36380;BME280;22411;53.016;18.632;2023-04-03T10:31:26;102019.56;;;8.04;50.79
36380;BME280;22411;53.016;18.632;2023-04-03T10:34:14;102021.50;;;8.22;46.95
36380;BME280;22411;53.016;18.632;2023-04-03T10:42:35;102011.94;;;10.26;43.19
36380;BME280;22411;53.016;18.632;2023-04-03T10:45:32;102021.25;;;10.30;43.49
36380;BME280;22411;53.016;18.632;2023-04-03T10:48:30;102012.41;;;9.73;43.58
36380;BME280;22411;53.016;18.632;2023-04-03T10:53:54;102000.88;;;9.60;44.51
36380;BME280;22411;53.016;18.632;2023-04-03T10:56:48;102006.94;;;9.81;42.57
36380;BME280;22411;53.016;18.632;2023-04-03T10:59:40;102010.88;;;9.89;42.51
36380;BME280;22411;53.016;18.632;2023-04-03T11:02:28;102003.38;;;10.24;41.14
36380;BME280;22411;53.016;18.632;2023-04-03T11:05:01;102002.97;;;10.72;39.89
36380;BME280;22411;53.016;18.632;2023-04-03T11:07:33;102001.75;;;10.80;39.42
36380;BME280;22411;53.016;18.632;2023-04-03T11:10:11;101984.19;;;10.67;39.36
36380;BME280;22411;53.016;18.632;2023-04-03T11:12:53;101994.31;;;10.53;40.16
36380;BME280;22411;53.016;18.632;2023-04-03T11:15:26;101985.34;;;10.41;41.22
36380;BME280;22411;53.016;18.632;2023-04-03T11:17:59;101992.00;;;10.06;40.51
36380;BME280;22411;53.016;18.632;2023-04-03T11:20:32;102001.22;;;9.73;42.25
36380;BME280;22411;53.016;18.632;2023-04-03T11:23:21;101984.38;;;10.44;41.14
36380;BME280;22411;53.016;18.632;2023-04-03T11:25:53;101992.34;;;11.15;39.66
36380;BME280;22411;53.016;18.632;2023-04-03T11:28:21;101978.13;;;10.86;38.53
36380;BME280;22411;53.016;18.632;2023-04-03T11:31:12;101982.34;;;10.69;42.91
36380;BME280;22411;53.016;18.632;2023-04-03T11:36:44;101981.00;;;9.38;41.78
36380;BME280;22411;53.016;18.632;2023-04-03T11:39:24;101986.22;;;9.81;41.85
36380;BME280;22411;53.016;18.632;2023-04-03T11:41:52;101982.34;;;10.69;38.81
36380;BME280;22411;53.016;18.632;2023-04-03T11:44:35;101975.94;;;11.68;35.31
36380;BME280;22411;53.016;18.632;2023-04-03T11:47:11;101954.84;;;11.91;35.49
36380;BME280;22411;53.016;18.632;2023-04-03T12:08:28;101957.53;;;10.64;43.15
36380;BME280;22411;53.016;18.632;2023-04-03T12:16:33;101963.53;;;9.23;47.91
36380;BME280;22411;53.016;18.632;2023-04-03T12:43:07;101953.91;;;12.59;35.64
36380;BME280;22411;53.016;18.632;2023-04-03T12:46:04;101954.59;;;13.25;32.40
36380;BME280;22411;53.016;18.632;2023-04-03T12:48:46;101947.94;;;13.36;32.96
36380;BME280;22411;53.016;18.632;2023-04-03T12:51:16;101951.91;;;12.48;35.60
36380;BME280;22411;53.016;18.632;2023-04-03T12:53:44;101945.75;;;10.94;39.07
36380;BME280;22411;53.016;18.632;2023-04-03T12:56:29;101952.66;;;9.78;42.25
36380;BME280;22411;53.016;18.632;2023-04-03T12:59:16;101952.88;;;9.31;43.10
36380;BME280;22411;53.016;18.632;2023-04-03T13:01:53;101946.47;;;10.21;42.87
36380;BME280;22411;53.016;18.632;2023-04-03T13:04:20;101932.16;;;11.25;39.97
36380;BME280;22411;53.016;18.632;2023-04-03T13:06:46;101930.88;;;11.34;37.08
36380;BME280;22411;53.016;18.632;2023-04-03T13:11:49;101945.25;;;10.09;41.11
36380;BME280;22411;53.016;18.632;2023-04-03T13:14:18;101938.09;;;9.33;44.83
36380;BME280;22411;53.016;18.632;2023-04-03T13:16:59;101938.28;;;8.86;48.93
36380;BME280;22411;53.016;18.632;2023-04-03T13:19:28;101937.50;;;8.60;53.43
36380;BME280;22411;53.016;18.632;2023-04-03T13:22:34;101939.59;;;8.51;53.02
36380;BME280;22411;53.016;18.632;2023-04-03T13:24:53;101949.69;;;8.33;54.43
36380;BME280;22411;53.016;18.632;2023-04-03T13:27:22;101943.34;;;8.17;56.33
36380;BME280;22411;53.016;18.632;2023-04-03T13:29:53;101944.47;;;8.10;56.42
36380;BME280;22411;53.016;18.632;2023-04-03T13:32:23;101942.81;;;8.79;56.33
36380;BME280;22411;53.016;18.632;2023-04-03T13:34:50;101932.00;;;9.56;52.16
36380;BME280;22411;53.016;18.632;2023-04-03T13:42:40;101942.63;;;8.13;59.32
36380;BME280;22411;53.016;18.632;2023-04-03T13:47:42;101934.03;;;7.10;63.79
36380;BME280;22411;53.016;18.632;2023-04-03T13:52:41;101936.13;;;7.25;64.55
36380;BME280;22411;53.016;18.632;2023-04-03T13:55:25;101928.97;;;8.10;58.67
36380;BME280;22411;53.016;18.632;2023-04-03T13:58:02;101917.09;;;8.98;51.73
36380;BME280;22411;53.016;18.632;2023-04-03T14:00:34;101927.41;;;9.42;46.79
36380;BME280;22411;53.016;18.632;2023-04-03T14:03:01;101928.34;;;10.01;45.69
36380;BME280;22411;53.016;18.632;2023-04-03T14:05:27;101924.16;;;10.94;43.04
36380;BME280;22411;53.016;18.632;2023-04-03T14:07:54;101916.44;;;11.46;40.97
36380;BME280;22411;53.016;18.632;2023-04-03T14:10:21;101923.81;;;11.19;38.89
36380;BME280;22411;53.016;18.632;2023-04-03T14:12:48;101928.50;;;11.30;39.94
36380;BME280;22411;53.016;18.632;2023-04-03T14:15:24;101936.28;;;11.30;38.49
36380;BME280;22411;53.016;18.632;2023-04-03T14:17:54;101935.91;;;11.01;39.26
36380;BME280;22411;53.016;18.632;2023-04-03T14:20:25;101931.91;;;10.77;39.11
36380;BME280;22411;53.016;18.632;2023-04-03T14:22:53;101938.72;;;10.60;40.96
36380;BME280;22411;53.016;18.632;2023-04-03T14:25:20;101926.88;;;10.91;39.99
36380;BME280;22411;53.016;18.632;2023-04-03T14:27:51;101925.16;;;10.35;38.14
36380;BME280;22411;53.016;18.632;2023-04-03T14:30:28;101920.38;;;10.26;40.44
36380;BME280;22411;53.016;18.632;2023-04-03T14:32:57;101932.44;;;10.06;41.95
36380;BME280;22411;53.016;18.632;2023-04-03T14:35:25;101938.94;;;9.55;41.54
36380;BME280;22411;53.016;18.632;2023-04-03T14:37:53;101941.09;;;9.24;42.58
36380;BME280;22411;53.016;18.632;2023-04-03T14:40:24;101935.38;;;9.58;42.58
36380;BME280;22411;53.016;18.632;2023-04-03T14:42:51;101929.75;;;9.89;43.40
36380;BME280;22411;53.016;18.632;2023-04-03T14:45:22;101934.34;;;9.82;40.23
36380;BME280;22411;53.016;18.632;2023-04-03T14:47:53;101942.19;;;9.38;41.78
36380;BME280;22411;53.016;18.632;2023-04-03T14:50:23;101951.81;;;9.57;40.18
36380;BME280;22411;53.016;18.632;2023-04-03T14:52:52;101939.69;;;9.37;40.50